createdAt,value
2023-04-12T00:03:00.297Z,10.92
2023-04-12T00:08:02.372Z,10.91
2023-04-12T00:13:05.551Z,10.98
2023-04-12T00:18:06.935Z,11.17
2023-04-12T00:23:05.227Z,11.29
2023-04-12T00:28:06.278Z,11.40
2023-04-12T00:33:05.038Z,11.03
2023-04-12T00:38:11.210Z,11.20
2023-04-12T00:43:18.439Z,11.18
2023-04-12T00:48:19.531Z,10.92
2023-04-12T00:53:22.988Z,11.07
2023-04-12T00:58:26.161Z,11.22
2023-04-12T01:03:24.700Z,11.09
2023-04-12T01:08:44.637Z,11.19
2023-04-12T01:13:53.435Z,10.83
2023-04-12T01:18:59.846Z,11.23
2023-04-12T01:24:14.898Z,10.95
2023-04-12T01:29:15.811Z,10.98
2023-04-12T01:34:17.317Z,11.14
2023-04-12T01:39:23.814Z,11.04
2023-04-12T01:44:25.897Z,11.20
2023-04-12T01:49:34.794Z,11.26
2023-04-12T01:54:39.603Z,11.30
2023-04-12T01:59:46.857Z,11.21
2023-04-12T02:04:46.848Z,11.22
2023-04-12T02:09:45.810Z,11.11
2023-04-12T02:14:45.040Z,10.68
2023-04-12T02:19:49.676Z,10.98
2023-04-12T02:24:51.167Z,11.37
2023-04-12T02:30:02.326Z,11.34
2023-04-12T02:35:04.032Z,11.43
2023-04-12T02:40:06.532Z,11.25
2023-04-12T02:45:06.386Z,11.28
2023-04-12T02:50:09.635Z,11.12
2023-04-12T02:55:18.468Z,11.08
2023-04-12T03:00:17.852Z,11.27
2023-04-12T03:05:22.736Z,11.03
2023-04-12T03:10:24.858Z,10.98
2023-04-12T03:15:34.832Z,10.91
2023-04-12T03:20:34.270Z,10.88
2023-04-12T03:25:38.713Z,10.72
2023-04-12T03:31:01.600Z,10.86
2023-04-12T03:36:13.540Z,11.08
2023-04-12T03:41:16.480Z,10.91
2023-04-12T03:46:18.416Z,10.84
2023-04-12T03:51:30.900Z,10.96
2023-04-12T03:56:36.762Z,10.92
2023-04-12T04:01:42.118Z,11.09
2023-04-12T04:06:43.077Z,10.79
2023-04-12T04:11:46.142Z,10.95
2023-04-12T04:16:46.922Z,10.81
2023-04-12T04:21:48.064Z,10.77
2023-04-12T04:26:48.286Z,10.91
2023-04-12T04:32:00.500Z,10.74
2023-04-12T04:36:59.603Z,10.83
2023-04-12T04:42:01.356Z,10.79
2023-04-12T04:47:25.205Z,11.17
2023-04-12T04:52:25.752Z,10.76
2023-04-12T04:57:33.468Z,10.71
2023-04-12T05:02:37.276Z,11.04
2023-04-12T05:07:38.783Z,11.07
2023-04-12T05:12:37.924Z,10.99
2023-04-12T05:17:38.276Z,11.09
2023-04-12T05:22:40.966Z,11.14
2023-04-12T05:27:42.281Z,10.69
2023-04-12T05:32:50.534Z,10.74
2023-04-12T05:37:54.245Z,10.88
2023-04-12T05:42:55.116Z,10.84
2023-04-12T05:47:56.356Z,11.00
2023-04-12T05:52:55.668Z,10.88
2023-04-12T05:57:58.816Z,10.81
2023-04-12T06:02:58.681Z,10.88
2023-04-12T06:08:00.137Z,11.22
2023-04-12T06:12:58.291Z,10.93
2023-04-12T06:18:00.639Z,11.02
2023-04-12T06:23:01.963Z,11.11
2023-04-12T06:28:03.637Z,11.02
2023-04-12T06:33:04.266Z,11.31
2023-04-12T06:38:06.210Z,11.23
2023-04-12T06:43:08.469Z,10.92
2023-04-12T06:48:11.153Z,10.78
2023-04-12T06:53:10.516Z,11.00
2023-04-12T06:58:10.255Z,11.21
2023-04-12T07:03:09.477Z,11.08
2023-04-12T07:08:16.102Z,10.83
2023-04-12T07:13:15.326Z,11.30
2023-04-12T07:18:13.685Z,11.16
2023-04-12T07:24:14.423Z,11.56
2023-04-12T07:35:52.402Z,11.74
2023-04-12T07:41:17.472Z,11.91
2023-04-12T07:46:19.455Z,11.74
2023-04-12T07:51:18.890Z,12.06
2023-04-12T07:56:21.817Z,12.32
2023-04-12T08:01:22.326Z,12.15
2023-04-12T08:06:22.967Z,12.41
2023-04-12T08:11:22.904Z,12.26
2023-04-12T08:16:22.942Z,12.39
2023-04-12T08:21:25.087Z,12.23
2023-04-12T08:26:26.709Z,12.65
2023-04-12T08:31:26.430Z,12.41
2023-04-12T08:36:27.507Z,12.35
2023-04-12T08:41:28.911Z,12.39
2023-04-12T08:46:30.283Z,12.52
2023-04-12T08:51:33.301Z,12.30
2023-04-12T08:56:31.739Z,12.31
2023-04-12T09:01:34.344Z,12.40
2023-04-12T09:06:35.084Z,13.23
2023-04-12T09:11:36.295Z,13.15
2023-04-12T09:16:40.759Z,13.23
2023-04-12T09:21:54.014Z,13.48
2023-04-12T09:27:07.454Z,13.55
2023-04-12T09:32:11.953Z,13.40
2023-04-12T09:37:17.131Z,13.27
2023-04-12T09:42:32.516Z,13.74
2023-04-12T09:47:40.543Z,13.85
2023-04-12T09:52:39.381Z,13.80
2023-04-12T09:57:42.697Z,13.74
2023-04-12T10:02:44.861Z,13.93
2023-04-12T10:07:47.701Z,14.11
2023-04-12T10:12:48.133Z,14.30
2023-04-12T10:18:49.848Z,14.49
2023-04-12T10:23:52.050Z,14.57
2023-04-12T10:29:33.931Z,14.71
2023-04-12T10:34:32.876Z,14.75
2023-04-12T10:39:47.600Z,14.93
2023-04-12T10:44:47.461Z,15.12
2023-04-12T10:50:25.331Z,14.73
2023-04-12T10:55:36.288Z,14.70
2023-04-12T11:00:59.561Z,14.86
2023-04-12T11:06:20.196Z,14.50
2023-04-12T11:11:42.580Z,14.66
2023-04-12T11:17:07.530Z,14.31
2023-04-12T11:22:07.636Z,14.18
2023-04-12T11:27:07.112Z,14.51
2023-04-12T11:32:10.263Z,14.74
2023-04-12T11:37:09.986Z,14.69
2023-04-12T11:42:22.370Z,14.29
2023-04-12T11:47:24.242Z,14.63
2023-04-12T11:52:34.118Z,14.62
2023-04-12T11:57:34.416Z,14.64
2023-04-12T12:02:41.232Z,14.60
2023-04-12T12:07:46.388Z,14.32
2023-04-12T12:12:45.672Z,14.62
2023-04-12T12:17:44.275Z,14.33
2023-04-12T12:22:47.978Z,14.32
2023-04-12T12:27:50.827Z,14.28
2023-04-12T12:32:52.588Z,14.12
2023-04-12T12:37:59.870Z,14.40
2023-04-12T12:43:01.511Z,14.50
2023-04-12T12:48:04.180Z,13.99
2023-04-12T12:53:07.044Z,13.95
2023-04-12T12:58:07.316Z,14.29
2023-04-12T13:03:12.425Z,14.36
2023-04-12T13:08:23.889Z,14.64
2023-04-12T13:13:34.785Z,14.38
2023-04-12T13:18:34.408Z,15.14
2023-04-12T13:23:36.113Z,14.95
2023-04-12T13:28:40.762Z,15.22
2023-04-12T13:33:43.726Z,15.23
2023-04-12T13:38:43.074Z,15.10
2023-04-12T13:43:45.700Z,14.91
2023-04-12T13:48:43.659Z,14.94
2023-04-12T13:53:45.107Z,15.03
2023-04-12T13:58:46.045Z,15.09
2023-04-12T14:03:47.084Z,15.06
2023-04-12T14:08:50.184Z,15.05
2023-04-12T14:13:51.092Z,15.21
2023-04-12T14:18:51.041Z,15.45
2023-04-12T14:23:51.727Z,15.33
2023-04-12T14:28:57.499Z,15.46
2023-04-12T14:33:57.761Z,16.27
2023-04-12T14:39:10.448Z,16.52
2023-04-12T14:44:12.654Z,17.30
2023-04-12T14:49:14.751Z,17.69
2023-04-12T14:54:15.724Z,17.90
2023-04-12T14:59:16.813Z,17.36
2023-04-12T15:04:18.210Z,16.95
2023-04-12T15:09:17.857Z,16.99
2023-04-12T15:14:20.638Z,16.52
2023-04-12T15:19:23.425Z,16.50
2023-04-12T15:24:25.442Z,16.46
2023-04-12T15:29:24.740Z,16.37
2023-04-12T15:34:25.357Z,16.10
2023-04-12T15:39:23.872Z,15.90
2023-04-12T15:44:25.781Z,16.02
2023-04-12T15:49:26.724Z,16.18
2023-04-12T15:54:44.165Z,15.89
2023-04-12T15:59:43.358Z,15.86
2023-04-12T16:04:43.416Z,15.92
2023-04-12T16:09:44.666Z,15.92
2023-04-12T16:14:45.957Z,16.16
2023-04-12T16:19:44.668Z,16.19
2023-04-12T16:24:43.237Z,16.15
2023-04-12T16:29:43.105Z,15.89
2023-04-12T16:34:43.404Z,15.32
2023-04-12T16:40:05.745Z,15.29
2023-04-12T16:45:05.003Z,15.45
2023-04-12T16:50:14.388Z,15.57
2023-04-12T16:55:13.215Z,14.78
2023-04-12T17:00:21.133Z,14.24
2023-04-12T17:05:23.022Z,14.24
2023-04-12T17:10:33.185Z,13.89
2023-04-12T17:15:35.212Z,14.19
2023-04-12T17:20:59.117Z,14.02
2023-04-12T17:25:58.310Z,13.71
2023-04-12T17:31:18.751Z,13.61
2023-04-12T17:42:02.213Z,13.56
2023-04-12T17:47:14.048Z,13.33
2023-04-12T17:52:17.277Z,13.67
2023-04-12T17:57:18.800Z,14.07
2023-04-12T18:02:19.708Z,13.96
2023-04-12T18:07:20.315Z,13.53
2023-04-12T18:12:20.539Z,13.80
2023-04-12T18:17:31.462Z,14.07
2023-04-12T18:22:31.686Z,13.93
2023-04-12T18:27:32.887Z,13.71
2023-04-12T18:32:35.368Z,13.60
2023-04-12T18:37:38.187Z,13.66
2023-04-12T18:42:40.219Z,13.86
2023-04-12T18:47:39.338Z,13.71
2023-04-12T18:52:46.356Z,13.80
2023-04-12T18:57:48.481Z,13.60
2023-04-12T19:02:52.016Z,13.28
2023-04-12T19:07:53.213Z,13.21
2023-04-12T19:12:54.773Z,12.89
2023-04-12T19:17:59.975Z,13.38
2023-04-12T19:23:02.200Z,13.53
2023-04-12T19:28:02.562Z,13.33
2023-04-12T19:33:04.615Z,13.36
2023-04-12T19:38:13.370Z,13.28
2023-04-12T19:43:21.230Z,13.01
2023-04-12T19:48:20.262Z,12.67
2023-04-12T19:53:24.548Z,12.70
2023-04-12T19:58:25.057Z,12.43
2023-04-12T20:03:29.120Z,12.56
2023-04-12T20:08:29.816Z,12.38
2023-04-12T20:13:40.979Z,12.28
2023-04-12T20:18:49.088Z,12.08
2023-04-12T20:23:55.233Z,11.84
2023-04-12T20:29:02.474Z,11.98
2023-04-12T20:34:04.287Z,12.18
2023-04-12T20:39:07.923Z,11.94
2023-04-12T20:44:19.253Z,11.89
2023-04-12T20:49:33.747Z,11.83
2023-04-12T20:54:44.066Z,12.01
2023-04-12T21:00:19.404Z,11.96
2023-04-12T21:05:19.308Z,11.62
2023-04-12T21:10:25.237Z,11.67
2023-04-12T21:15:42.337Z,11.48
2023-04-12T21:20:58.872Z,11.54
2023-04-12T21:26:02.909Z,11.59
2023-04-12T21:36:43.433Z,11.21
2023-04-12T21:41:49.655Z,11.22
2023-04-12T21:47:10.516Z,11.05
2023-04-12T21:52:47.807Z,11.31
2023-04-12T21:57:53.322Z,11.38
2023-04-12T22:02:55.275Z,11.46
2023-04-12T22:08:02.656Z,11.48
2023-04-12T22:13:14.505Z,11.51
2023-04-12T22:18:46.556Z,11.39
2023-04-12T22:23:46.439Z,11.53
2023-04-12T22:29:00.970Z,11.65
2023-04-12T22:34:12.091Z,11.51
2023-04-12T22:39:20.892Z,11.25
2023-04-12T22:44:40.322Z,11.23
2023-04-12T22:49:53.728Z,11.27
2023-04-12T22:54:56.319Z,11.34
2023-04-12T22:59:55.153Z,11.26
2023-04-12T23:04:57.125Z,11.07
2023-04-12T23:09:59.294Z,11.00
2023-04-12T23:14:58.543Z,10.63
2023-04-12T23:19:57.999Z,10.94
2023-04-12T23:25:00.274Z,10.73
2023-04-12T23:29:59.162Z,10.39
2023-04-12T23:35:05.659Z,10.31
2023-04-12T23:40:12.853Z,10.36
2023-04-12T23:45:12.887Z,10.42
2023-04-12T23:50:14.846Z,10.28
2023-04-12T23:55:18.490Z,10.19
